sensor_id;sensor_type;location;lat;lon;timestamp;pressure;altitude;pressure_sealevel;temperature;humidity
62237;BME280;69163;48.778;2.308;2023-07-28T00:00:11;100125.68;;;22.86;44.78
62237;BME280;69163;48.778;2.308;2023-07-28T00:02:36;100128.11;;;22.88;44.74
62237;BME280;69163;48.778;2.308;2023-07-28T00:05:02;100127.86;;;22.91;44.67
62237;BME280;69163;48.778;2.308;2023-07-28T00:07:27;100129.63;;;22.44;44.65
62237;BME280;69163;48.778;2.308;2023-07-28T00:09:52;100127.88;;;22.01;44.56
62237;BME280;69163;48.778;2.308;2023-07-28T00:12:17;100127.90;;;22.69;44.57
62237;BME280;69163;48.778;2.308;2023-07-28T00:14:42;100120.72;;;22.62;44.62
62237;BME280;69163;48.778;2.308;2023-07-28T00:17:07;100112.83;;;22.86;44.61
62237;BME280;69163;48.778;2.308;2023-07-28T00:19:33;100114.89;;;22.88;44.53
62237;BME280;69163;48.778;2.308;2023-07-28T00:21:58;100115.89;;;22.63;44.56
62237;BME280;69163;48.778;2.308;2023-07-28T00:24:23;100114.10;;;22.90;44.50
62237;BME280;69163;48.778;2.308;2023-07-28T00:26:48;100112.88;;;22.89;44.44
62237;BME280;69163;48.778;2.308;2023-07-28T00:29:14;100116.84;;;23.22;44.33
62237;BME280;69163;48.778;2.308;2023-07-28T00:31:39;100115.09;;;22.91;44.35
62237;BME280;69163;48.778;2.308;2023-07-28T00:34:04;100115.03;;;22.88;44.42
62237;BME280;69163;48.778;2.308;2023-07-28T00:36:30;100116.66;;;22.87;44.36
62237;BME280;69163;48.778;2.308;2023-07-28T00:38:55;100115.23;;;22.40;44.34
62237;BME280;69163;48.778;2.308;2023-07-28T00:41:20;100113.72;;;22.38;44.33
62237;BME280;69163;48.778;2.308;2023-07-28T00:43:45;100115.23;;;22.38;44.34
62237;BME280;69163;48.778;2.308;2023-07-28T00:46:10;100114.35;;;22.65;44.33
62237;BME280;69163;48.778;2.308;2023-07-28T00:48:36;100112.02;;;22.62;44.36
62237;BME280;69163;48.778;2.308;2023-07-28T00:51:01;100109.70;;;22.62;44.39
62237;BME280;69163;48.778;2.308;2023-07-28T00:53:26;100109.81;;;22.85;44.41
62237;BME280;69163;48.778;2.308;2023-07-28T00:55:52;100112.97;;;22.88;44.39
62237;BME280;69163;48.778;2.308;2023-07-28T00:58:16;100112.46;;;22.94;44.31
62237;BME280;69163;48.778;2.308;2023-07-28T01:00:41;100112.15;;;22.94;44.28
62237;BME280;69163;48.778;2.308;2023-07-28T01:03:07;100110.99;;;22.69;44.22
62237;BME280;69163;48.778;2.308;2023-07-28T01:05:36;100111.22;;;22.97;44.21
62237;BME280;69163;48.778;2.308;2023-07-28T01:08:03;100108.80;;;22.98;44.12
62237;BME280;69163;48.778;2.308;2023-07-28T01:10:26;100111.10;;;23.04;44.03
62237;BME280;69163;48.778;2.308;2023-07-28T01:12:48;100108.68;;;22.75;44.05
62237;BME280;69163;48.778;2.308;2023-07-28T01:15:13;100112.37;;;22.50;44.08
62237;BME280;69163;48.778;2.308;2023-07-28T01:17:38;100115.04;;;22.77;44.06
62237;BME280;69163;48.778;2.308;2023-07-28T01:20:04;100114.16;;;22.72;44.14
62237;BME280;69163;48.778;2.308;2023-07-28T01:22:43;100115.20;;;22.71;44.11
62237;BME280;69163;48.778;2.308;2023-07-28T01:25:01;100113.39;;;22.48;44.10
62237;BME280;69163;48.778;2.308;2023-07-28T01:27:19;100109.30;;;22.74;44.07
62237;BME280;69163;48.778;2.308;2023-07-28T01:29:44;100110.69;;;23.01;43.94
62237;BME280;69163;48.778;2.308;2023-07-28T01:32:11;100115.60;;;23.05;43.92
62237;BME280;69163;48.778;2.308;2023-07-28T01:34:34;100115.57;;;22.82;43.90
62237;BME280;69163;48.778;2.308;2023-07-28T01:36:59;100116.39;;;22.81;43.91
62237;BME280;69163;48.778;2.308;2023-07-28T01:39:25;100113.29;;;22.76;43.98
62237;BME280;69163;48.778;2.308;2023-07-28T01:41:50;100109.47;;;22.99;44.00
62237;BME280;69163;48.778;2.308;2023-07-28T01:44:15;100108.61;;;23.18;44.02
62237;BME280;69163;48.778;2.308;2023-07-28T01:46:41;100106.93;;;22.40;44.09
62237;BME280;69163;48.778;2.308;2023-07-28T01:49:06;100102.58;;;22.43;44.04
62237;BME280;69163;48.778;2.308;2023-07-28T01:51:31;100095.61;;;22.44;43.98
62237;BME280;69163;48.778;2.308;2023-07-28T01:53:56;100091.58;;;22.50;43.90
62237;BME280;69163;48.778;2.308;2023-07-28T01:56:21;100091.82;;;22.91;44.03
62237;BME280;69163;48.778;2.308;2023-07-28T01:58:46;100092.00;;;22.89;44.13
62237;BME280;69163;48.778;2.308;2023-07-28T02:01:13;100091.20;;;22.83;44.12
62237;BME280;69163;48.778;2.308;2023-07-28T02:03:37;100094.15;;;22.87;44.09
62237;BME280;69163;48.778;2.308;2023-07-28T02:06:02;100098.53;;;22.91;44.49
62237;BME280;69163;48.778;2.308;2023-07-28T02:08:27;100103.32;;;22.66;45.28
62237;BME280;69163;48.778;2.308;2023-07-28T02:10:53;100105.84;;;22.51;45.37
62237;BME280;69163;48.778;2.308;2023-07-28T02:13:17;100106.32;;;22.93;45.52
62237;BME280;69163;48.778;2.308;2023-07-28T02:15:43;100099.99;;;22.91;45.76
62237;BME280;69163;48.778;2.308;2023-07-28T02:18:08;100101.06;;;22.64;45.87
62237;BME280;69163;48.778;2.308;2023-07-28T02:20:34;100097.39;;;22.42;45.85
62237;BME280;69163;48.778;2.308;2023-07-28T02:22:59;100094.86;;;22.41;45.75
62237;BME280;69163;48.778;2.308;2023-07-28T02:25:24;100094.19;;;22.40;45.74
62237;BME280;69163;48.778;2.308;2023-07-28T02:27:49;100088.85;;;22.40;45.90
62237;BME280;69163;48.778;2.308;2023-07-28T02:30:14;100094.35;;;22.93;45.81
62237;BME280;69163;48.778;2.308;2023-07-28T02:32:39;100095.94;;;22.64;45.93
62237;BME280;69163;48.778;2.308;2023-07-28T02:35:05;100094.42;;;22.91;45.85
62237;BME280;69163;48.778;2.308;2023-07-28T02:37:30;100086.35;;;22.84;45.91
62237;BME280;69163;48.778;2.308;2023-07-28T02:39:55;100085.89;;;22.63;45.86
62237;BME280;69163;48.778;2.308;2023-07-28T02:42:20;100088.09;;;23.09;45.93
62237;BME280;69163;48.778;2.308;2023-07-28T02:44:45;100090.82;;;22.83;45.82
62237;BME280;69163;48.778;2.308;2023-07-28T02:47:10;100088.85;;;22.77;45.89
62237;BME280;69163;48.778;2.308;2023-07-28T02:49:36;100088.31;;;22.76;45.89
62237;BME280;69163;48.778;2.308;2023-07-28T02:52:01;100090.34;;;22.73;45.91
62237;BME280;69163;48.778;2.308;2023-07-28T02:54:27;100088.96;;;22.22;45.93
62237;BME280;69163;48.778;2.308;2023-07-28T02:56:52;100093.36;;;22.25;45.87
62237;BME280;69163;48.778;2.308;2023-07-28T02:59:16;100094.45;;;22.47;45.91
62237;BME280;69163;48.778;2.308;2023-07-28T03:01:42;100098.71;;;22.51;45.71
62237;BME280;69163;48.778;2.308;2023-07-28T03:04:07;100100.41;;;22.71;45.75
62237;BME280;69163;48.778;2.308;2023-07-28T03:06:32;100103.97;;;22.47;45.69
62237;BME280;69163;48.778;2.308;2023-07-28T03:08:59;100101.35;;;22.46;45.70
62237;BME280;69163;48.778;2.308;2023-07-28T03:11:23;100103.02;;;22.71;45.68
62237;BME280;69163;48.778;2.308;2023-07-28T03:13:48;100106.50;;;23.10;45.76
62237;BME280;69163;48.778;2.308;2023-07-28T03:16:13;100105.87;;;22.62;45.79
62237;BME280;69163;48.778;2.308;2023-07-28T03:18:38;100104.98;;;22.61;45.79
62237;BME280;69163;48.778;2.308;2023-07-28T03:21:04;100101.51;;;22.61;45.73
62237;BME280;69163;48.778;2.308;2023-07-28T03:23:29;100102.69;;;22.79;45.75
62237;BME280;69163;48.778;2.308;2023-07-28T03:25:54;100104.57;;;22.38;45.63
62237;BME280;69163;48.778;2.308;2023-07-28T03:28:20;100106.45;;;22.15;45.57
62237;BME280;69163;48.778;2.308;2023-07-28T03:30:44;100107.32;;;22.38;45.60
62237;BME280;69163;48.778;2.308;2023-07-28T03:33:10;100104.88;;;22.40;45.58
62237;BME280;69163;48.778;2.308;2023-07-28T03:35:35;100105.22;;;22.35;45.62
62237;BME280;69163;48.778;2.308;2023-07-28T03:38:00;100102.85;;;22.50;45.74
62237;BME280;69163;48.778;2.308;2023-07-28T03:40:25;100099.57;;;22.46;45.79
62237;BME280;69163;48.778;2.308;2023-07-28T03:42:51;100097.05;;;22.44;45.81
62237;BME280;69163;48.778;2.308;2023-07-28T03:45:16;100093.61;;;22.42;45.78
62237;BME280;69163;48.778;2.308;2023-07-28T03:47:42;100088.31;;;22.39;45.78
62237;BME280;69163;48.778;2.308;2023-07-28T03:50:14;100088.96;;;22.43;45.72
62237;BME280;69163;48.778;2.308;2023-07-28T03:52:31;100088.92;;;22.41;45.77
62237;BME280;69163;48.778;2.308;2023-07-28T03:54:56;100083.44;;;22.38;45.80
62237;BME280;69163;48.778;2.308;2023-07-28T03:57:22;100084.77;;;22.46;45.72
62237;BME280;69163;48.778;2.308;2023-07-28T03:59:47;100076.89;;;22.21;45.67
62237;BME280;69163;48.778;2.308;2023-07-28T04:02:12;100082.24;;;21.94;45.69
62237;BME280;69163;48.778;2.308;2023-07-28T04:04:37;100085.04;;;22.44;45.66
62237;BME280;69163;48.778;2.308;2023-07-28T04:07:03;100088.81;;;22.19;45.69
62237;BME280;69163;48.778;2.308;2023-07-28T04:09:28;100091.10;;;22.42;45.65
62237;BME280;69163;48.778;2.308;2023-07-28T04:11:53;100088.49;;;22.18;45.63
62237;BME280;69163;48.778;2.308;2023-07-28T04:14:18;100086.25;;;22.35;45.77
62237;BME280;69163;48.778;2.308;2023-07-28T04:16:43;100081.69;;;22.34;45.81
62237;BME280;69163;48.778;2.308;2023-07-28T04:19:08;100080.76;;;22.35;45.75
62237;BME280;69163;48.778;2.308;2023-07-28T04:21:34;100079.35;;;22.30;45.82
62237;BME280;69163;48.778;2.308;2023-07-28T04:23:59;100077.57;;;22.09;45.78
62237;BME280;69163;48.778;2.308;2023-07-28T04:26:25;100077.19;;;22.85;45.68
62237;BME280;69163;48.778;2.308;2023-07-28T04:28:50;100078.22;;;22.40;45.59
62237;BME280;69163;48.778;2.308;2023-07-28T04:31:15;100078.74;;;22.12;45.67
62237;BME280;69163;48.778;2.308;2023-07-28T04:33:41;100087.07;;;21.93;45.61
62237;BME280;69163;48.778;2.308;2023-07-28T04:36:05;100090.09;;;22.35;45.63
62237;BME280;69163;48.778;2.308;2023-07-28T04:38:30;100093.74;;;22.36;45.59
62237;BME280;69163;48.778;2.308;2023-07-28T04:40:55;100096.21;;;22.19;45.52
62237;BME280;69163;48.778;2.308;2023-07-28T04:43:20;100092.56;;;22.25;45.73
62237;BME280;69163;48.778;2.308;2023-07-28T04:45:46;100094.15;;;22.32;45.69
62237;BME280;69163;48.778;2.308;2023-07-28T04:48:11;100093.81;;;22.38;45.60
62237;BME280;69163;48.778;2.308;2023-07-28T04:50:36;100087.91;;;22.37;45.56
62237;BME280;69163;48.778;2.308;2023-07-28T04:53:01;100093.01;;;22.38;45.48
62237;BME280;69163;48.778;2.308;2023-07-28T04:55:26;100095.60;;;22.42;45.40
62237;BME280;69163;48.778;2.308;2023-07-28T04:57:52;100093.01;;;22.38;45.48
62237;BME280;69163;48.778;2.308;2023-07-28T05:00:17;100093.28;;;22.31;45.61
62237;BME280;69163;48.778;2.308;2023-07-28T05:02:43;100089.92;;;22.05;45.62
62237;BME280;69163;48.778;2.308;2023-07-28T05:05:08;100091.72;;;22.31;45.58
62237;BME280;69163;48.778;2.308;2023-07-28T05:07:32;100091.62;;;22.14;45.45
62237;BME280;69163;48.778;2.308;2023-07-28T05:09:58;100093.03;;;22.06;45.55
62237;BME280;69163;48.778;2.308;2023-07-28T05:12:23;100091.50;;;22.37;45.47
62237;BME280;69163;48.778;2.308;2023-07-28T05:14:48;100089.40;;;22.31;45.54
62237;BME280;69163;48.778;2.308;2023-07-28T05:17:13;100094.72;;;22.30;45.52
62237;BME280;69163;48.778;2.308;2023-07-28T05:19:38;100094.29;;;22.61;45.39
62237;BME280;69163;48.778;2.308;2023-07-28T05:22:04;100093.07;;;22.33;45.51
62237;BME280;69163;48.778;2.308;2023-07-28T05:24:29;100094.06;;;22.49;45.58
62237;BME280;69163;48.778;2.308;2023-07-28T05:26:54;100095.56;;;22.25;45.56
62237;BME280;69163;48.778;2.308;2023-07-28T05:29:19;100094.62;;;22.46;45.62
62237;BME280;69163;48.778;2.308;2023-07-28T05:31:45;100095.02;;;22.38;45.73
62237;BME280;69163;48.778;2.308;2023-07-28T05:34:10;100097.85;;;22.46;45.63
62237;BME280;69163;48.778;2.308;2023-07-28T05:36:35;100094.53;;;22.01;45.54
62237;BME280;69163;48.778;2.308;2023-07-28T05:39:01;100094.57;;;21.89;45.36
62237;BME280;69163;48.778;2.308;2023-07-28T05:41:28;100096.48;;;22.03;45.48
62237;BME280;69163;48.778;2.308;2023-07-28T05:43:51;100093.84;;;22.27;45.47
62237;BME280;69163;48.778;2.308;2023-07-28T05:46:16;100094.72;;;22.76;45.45
62237;BME280;69163;48.778;2.308;2023-07-28T05:48:41;100095.38;;;22.30;45.43
62237;BME280;69163;48.778;2.308;2023-07-28T05:51:06;100100.11;;;22.20;45.57
62237;BME280;69163;48.778;2.308;2023-07-28T05:53:31;100099.15;;;22.28;45.44
62237;BME280;69163;48.778;2.308;2023-07-28T05:55:56;100099.77;;;22.17;45.62
62237;BME280;69163;48.778;2.308;2023-07-28T05:58:22;100099.29;;;22.26;45.45
62237;BME280;69163;48.778;2.308;2023-07-28T06:00:47;100105.67;;;22.57;45.32
62237;BME280;69163;48.778;2.308;2023-07-28T06:03:12;100104.93;;;22.53;45.34
62237;BME280;69163;48.778;2.308;2023-07-28T06:05:38;100107.15;;;22.49;45.41
62237;BME280;69163;48.778;2.308;2023-07-28T06:08:03;100105.61;;;22.20;45.47
62237;BME280;69163;48.778;2.308;2023-07-28T06:10:28;100106.35;;;22.00;45.44
62237;BME280;69163;48.778;2.308;2023-07-28T06:12:53;100106.01;;;21.77;45.44
62237;BME280;69163;48.778;2.308;2023-07-28T06:15:18;100108.96;;;22.29;45.34
62237;BME280;69163;48.778;2.308;2023-07-28T06:17:43;100111.79;;;22.26;45.39
62237;BME280;69163;48.778;2.308;2023-07-28T06:20:09;100112.87;;;22.31;45.30
62237;BME280;69163;48.778;2.308;2023-07-28T06:22:34;100112.68;;;22.56;45.28
62237;BME280;69163;48.778;2.308;2023-07-28T06:24:59;100116.14;;;22.51;45.34
62237;BME280;69163;48.778;2.308;2023-07-28T06:27:24;100121.05;;;22.70;45.38
62237;BME280;69163;48.778;2.308;2023-07-28T06:29:50;100119.84;;;22.28;45.30
62237;BME280;69163;48.778;2.308;2023-07-28T06:32:15;100121.00;;;22.21;45.42
62237;BME280;69163;48.778;2.308;2023-07-28T06:34:40;100121.66;;;22.42;45.48
62237;BME280;69163;48.778;2.308;2023-07-28T06:37:06;100123.75;;;22.36;45.55
62237;BME280;69163;48.778;2.308;2023-07-28T06:39:31;100125.21;;;22.75;45.32
62237;BME280;69163;48.778;2.308;2023-07-28T06:41:56;100125.32;;;22.08;45.25
62237;BME280;69163;48.778;2.308;2023-07-28T06:44:22;100124.29;;;21.86;45.17
62237;BME280;69163;48.778;2.308;2023-07-28T06:46:46;100130.36;;;22.03;45.29
62237;BME280;69163;48.778;2.308;2023-07-28T06:49:12;100132.80;;;22.19;45.40
62237;BME280;69163;48.778;2.308;2023-07-28T06:51:37;100139.48;;;22.17;45.45
62237;BME280;69163;48.778;2.308;2023-07-28T06:54:02;100141.48;;;22.16;45.46
62237;BME280;69163;48.778;2.308;2023-07-28T06:56:27;100146.25;;;22.10;45.63
62237;BME280;69163;48.778;2.308;2023-07-28T06:58:52;100145.98;;;22.11;45.55
62237;BME280;69163;48.778;2.308;2023-07-28T07:01:17;100148.03;;;22.38;45.52
62237;BME280;69163;48.778;2.308;2023-07-28T07:03:43;100149.86;;;22.68;45.40
62237;BME280;69163;48.778;2.308;2023-07-28T07:06:08;100148.26;;;22.41;45.44
62237;BME280;69163;48.778;2.308;2023-07-28T07:08:33;100147.71;;;22.31;45.58
62237;BME280;69163;48.778;2.308;2023-07-28T07:10:58;100149.35;;;22.34;45.55
62237;BME280;69163;48.778;2.308;2023-07-28T07:13:24;100146.91;;;22.18;45.79
62237;BME280;69163;48.778;2.308;2023-07-28T07:15:49;100148.23;;;21.76;45.72
62237;BME280;69163;48.778;2.308;2023-07-28T07:18:14;100153.17;;;21.55;45.65
62237;BME280;69163;48.778;2.308;2023-07-28T07:20:39;100151.42;;;22.05;45.61
62237;BME280;69163;48.778;2.308;2023-07-28T07:23:04;100155.74;;;21.92;45.85
62237;BME280;69163;48.778;2.308;2023-07-28T07:25:29;100157.08;;;22.06;46.75
62237;BME280;69163;48.778;2.308;2023-07-28T07:27:55;100159.67;;;22.10;47.41
62237;BME280;69163;48.778;2.308;2023-07-28T07:30:20;100160.24;;;22.34;47.86
62237;BME280;69163;48.778;2.308;2023-07-28T07:32:45;100164.89;;;22.12;48.06
62237;BME280;69163;48.778;2.308;2023-07-28T07:35:10;100172.70;;;22.07;48.24
62237;BME280;69163;48.778;2.308;2023-07-28T07:37:35;100178.92;;;22.32;48.31
62237;BME280;69163;48.778;2.308;2023-07-28T07:40:01;100174.90;;;22.15;47.81
62237;BME280;69163;48.778;2.308;2023-07-28T07:42:26;100175.85;;;22.34;48.10
62237;BME280;69163;48.778;2.308;2023-07-28T07:44:52;100173.68;;;22.14;48.05
62237;BME280;69163;48.778;2.308;2023-07-28T07:47:17;100173.87;;;21.95;48.07
62237;BME280;69163;48.778;2.308;2023-07-28T07:49:42;100175.74;;;21.47;48.13
62237;BME280;69163;48.778;2.308;2023-07-28T07:52:07;100173.91;;;21.77;48.09
62237;BME280;69163;48.778;2.308;2023-07-28T07:54:32;100176.10;;;21.00;48.15
62237;BME280;69163;48.778;2.308;2023-07-28T07:56:57;100175.27;;;21.76;48.00
62237;BME280;69163;48.778;2.308;2023-07-28T07:59:23;100176.48;;;22.05;47.88
62237;BME280;69163;48.778;2.308;2023-07-28T08:01:48;100179.42;;;21.87;47.70
62237;BME280;69163;48.778;2.308;2023-07-28T08:04:13;100175.80;;;21.86;47.68
62237;BME280;69163;48.778;2.308;2023-07-28T08:06:38;100178.77;;;21.90;47.58
62237;BME280;69163;48.778;2.308;2023-07-28T08:09:03;100178.68;;;22.15;47.48
62237;BME280;69163;48.778;2.308;2023-07-28T08:11:28;100182.21;;;22.13;47.62
62237;BME280;69163;48.778;2.308;2023-07-28T08:13:53;100182.10;;;21.64;47.77
62237;BME280;69163;48.778;2.308;2023-07-28T08:16:18;100185.51;;;22.30;48.15
62237;BME280;69163;48.778;2.308;2023-07-28T08:18:44;100185.71;;;22.07;48.08
62237;BME280;69163;48.778;2.308;2023-07-28T08:21:09;100188.04;;;22.00;48.44
62237;BME280;69163;48.778;2.308;2023-07-28T08:23:34;100188.10;;;22.30;48.55
62237;BME280;69163;48.778;2.308;2023-07-28T08:25:59;100190.11;;;22.06;48.67
62237;BME280;69163;48.778;2.308;2023-07-28T08:28:24;100191.16;;;22.15;48.62
62237;BME280;69163;48.778;2.308;2023-07-28T08:30:55;100191.35;;;22.63;48.56
62237;BME280;69163;48.778;2.308;2023-07-28T08:33:16;100194.03;;;22.18;48.63
62237;BME280;69163;48.778;2.308;2023-07-28T08:35:41;100194.79;;;21.74;48.63
62237;BME280;69163;48.778;2.308;2023-07-28T08:38:05;100195.44;;;21.71;48.73
62237;BME280;69163;48.778;2.308;2023-07-28T08:40:30;100200.31;;;21.93;48.83
62237;BME280;69163;48.778;2.308;2023-07-28T08:42:56;100198.89;;;21.98;48.72
62237;BME280;69163;48.778;2.308;2023-07-28T08:45:21;100205.26;;;22.19;48.74
62237;BME280;69163;48.778;2.308;2023-07-28T08:47:46;100207.10;;;22.19;48.86
62237;BME280;69163;48.778;2.308;2023-07-28T08:50:11;100207.09;;;22.26;48.78
62237;BME280;69163;48.778;2.308;2023-07-28T08:52:36;100210.43;;;22.71;48.88
62237;BME280;69163;48.778;2.308;2023-07-28T08:55:02;100209.05;;;22.50;48.81
62237;BME280;69163;48.778;2.308;2023-07-28T08:57:27;100209.46;;;22.47;48.85
62237;BME280;69163;48.778;2.308;2023-07-28T08:59:53;100206.49;;;22.25;48.88
62237;BME280;69163;48.778;2.308;2023-07-28T09:02:18;100209.56;;;22.74;48.89
62237;BME280;69163;48.778;2.308;2023-07-28T09:04:44;100209.50;;;22.02;48.82
62237;BME280;69163;48.778;2.308;2023-07-28T09:07:08;100207.58;;;22.06;48.80
62237;BME280;69163;48.778;2.308;2023-07-28T09:09:33;100211.37;;;21.59;48.87
62237;BME280;69163;48.778;2.308;2023-07-28T09:11:59;100210.42;;;22.13;48.80
62237;BME280;69163;48.778;2.308;2023-07-28T09:14:23;100210.31;;;22.35;48.84
62237;BME280;69163;48.778;2.308;2023-07-28T09:16:48;100209.96;;;22.37;48.75
62237;BME280;69163;48.778;2.308;2023-07-28T09:19:14;100209.25;;;22.37;48.74
62237;BME280;69163;48.778;2.308;2023-07-28T09:21:41;100206.45;;;22.60;48.79
62237;BME280;69163;48.778;2.308;2023-07-28T09:24:05;100210.79;;;22.32;48.88
62237;BME280;69163;48.778;2.308;2023-07-28T09:26:38;100210.71;;;22.84;48.79
62237;BME280;69163;48.778;2.308;2023-07-28T09:28:54;100206.53;;;22.08;48.91
62237;BME280;69163;48.778;2.308;2023-07-28T09:31:28;100207.90;;;22.36;48.81
62237;BME280;69163;48.778;2.308;2023-07-28T09:33:45;100210.75;;;22.32;48.89
62237;BME280;69163;48.778;2.308;2023-07-28T09:36:13;100205.46;;;22.30;49.00
62237;BME280;69163;48.778;2.308;2023-07-28T09:38:37;100205.61;;;22.10;48.90
62237;BME280;69163;48.778;2.308;2023-07-28T09:41:02;100206.98;;;22.09;48.91
62237;BME280;69163;48.778;2.308;2023-07-28T09:43:26;100207.19;;;21.84;48.93
62237;BME280;69163;48.778;2.308;2023-07-28T09:45:51;100207.71;;;22.08;48.99
62237;BME280;69163;48.778;2.308;2023-07-28T09:48:17;100208.71;;;22.34;48.97
62237;BME280;69163;48.778;2.308;2023-07-28T09:50:42;100207.76;;;22.28;49.14
62237;BME280;69163;48.778;2.308;2023-07-28T09:53:09;100206.08;;;22.31;48.95
62237;BME280;69163;48.778;2.308;2023-07-28T09:55:33;100200.36;;;22.56;48.92
62237;BME280;69163;48.778;2.308;2023-07-28T09:57:58;100197.26;;;22.31;48.99
62237;BME280;69163;48.778;2.308;2023-07-28T10:00:23;100198.27;;;22.32;49.00
62237;BME280;69163;48.778;2.308;2023-07-28T10:02:48;100198.88;;;22.71;49.18
62237;BME280;69163;48.778;2.308;2023-07-28T10:05:12;100198.82;;;22.30;48.99
62237;BME280;69163;48.778;2.308;2023-07-28T10:07:40;100200.64;;;22.29;49.04
62237;BME280;69163;48.778;2.308;2023-07-28T10:10:05;100201.71;;;22.34;49.02
62237;BME280;69163;48.778;2.308;2023-07-28T10:12:29;100200.87;;;22.10;48.98
62237;BME280;69163;48.778;2.308;2023-07-28T10:15:00;100196.78;;;21.90;48.78
62237;BME280;69163;48.778;2.308;2023-07-28T10:17:18;100195.27;;;21.93;48.80
62237;BME280;69163;48.778;2.308;2023-07-28T10:19:44;100194.71;;;22.37;48.91
62237;BME280;69163;48.778;2.308;2023-07-28T10:22:11;100191.50;;;22.39;48.84
62237;BME280;69163;48.778;2.308;2023-07-28T10:24:50;100190.10;;;22.41;48.83
62237;BME280;69163;48.778;2.308;2023-07-28T10:26:59;100191.80;;;22.42;48.79
62237;BME280;69163;48.778;2.308;2023-07-28T10:29:24;100191.47;;;22.19;48.86
62237;BME280;69163;48.778;2.308;2023-07-28T10:31:52;100188.60;;;22.44;48.83
62237;BME280;69163;48.778;2.308;2023-07-28T10:34:15;100187.34;;;22.43;48.86
62237;BME280;69163;48.778;2.308;2023-07-28T10:36:44;100183.51;;;22.70;48.69
62237;BME280;69163;48.778;2.308;2023-07-28T10:39:12;100179.31;;;22.73;48.69
62237;BME280;69163;48.778;2.308;2023-07-28T10:41:30;100178.79;;;22.50;48.72
62237;BME280;69163;48.778;2.308;2023-07-28T10:43:56;100171.35;;;22.28;48.69
62237;BME280;69163;48.778;2.308;2023-07-28T10:46:22;100167.99;;;22.26;48.68
62237;BME280;69163;48.778;2.308;2023-07-28T10:48:48;100164.56;;;22.02;48.68
62237;BME280;69163;48.778;2.308;2023-07-28T10:51:11;100162.62;;;22.21;48.88
62237;BME280;69163;48.778;2.308;2023-07-28T10:53:36;100163.80;;;22.36;48.63
62237;BME280;69163;48.778;2.308;2023-07-28T10:56:03;100166.18;;;22.67;48.27
62237;BME280;69163;48.778;2.308;2023-07-28T10:58:27;100165.11;;;22.83;48.00
62237;BME280;69163;48.778;2.308;2023-07-28T11:00:52;100169.88;;;22.64;48.09
62237;BME280;69163;48.778;2.308;2023-07-28T11:03:17;100173.87;;;22.67;48.07
62237;BME280;69163;48.778;2.308;2023-07-28T11:05:42;100173.44;;;22.88;48.09
62237;BME280;69163;48.778;2.308;2023-07-28T11:08:08;100168.00;;;22.68;47.93
62237;BME280;69163;48.778;2.308;2023-07-28T11:10:33;100166.33;;;22.95;47.98
62237;BME280;69163;48.778;2.308;2023-07-28T11:13:00;100165.02;;;22.97;47.66
62237;BME280;69163;48.778;2.308;2023-07-28T11:15:24;100168.67;;;22.85;47.53
62237;BME280;69163;48.778;2.308;2023-07-28T11:17:50;100165.55;;;22.62;47.46
62237;BME280;69163;48.778;2.308;2023-07-28T11:20:16;100167.43;;;22.71;47.15
62237;BME280;69163;48.778;2.308;2023-07-28T11:22:39;100163.44;;;22.79;47.00
62237;BME280;69163;48.778;2.308;2023-07-28T11:25:06;100157.31;;;22.58;47.31
62237;BME280;69163;48.778;2.308;2023-07-28T11:27:29;100157.28;;;23.16;46.95
62237;BME280;69163;48.778;2.308;2023-07-28T11:29:57;100158.79;;;22.90;46.95
62237;BME280;69163;48.778;2.308;2023-07-28T11:32:21;100159.75;;;23.25;46.79
62237;BME280;69163;48.778;2.308;2023-07-28T11:34:45;100159.61;;;23.46;46.90
62237;BME280;69163;48.778;2.308;2023-07-28T11:37:10;100156.42;;;23.07;46.76
62237;BME280;69163;48.778;2.308;2023-07-28T11:39:36;100160.37;;;23.31;46.77
62237;BME280;69163;48.778;2.308;2023-07-28T11:42:01;100155.68;;;23.34;46.78
62237;BME280;69163;48.778;2.308;2023-07-28T11:44:26;100152.81;;;23.62;47.52
62237;BME280;69163;48.778;2.308;2023-07-28T11:46:52;100147.02;;;23.43;47.47
62237;BME280;69163;48.778;2.308;2023-07-28T11:49:18;100134.44;;;23.22;47.20
62237;BME280;69163;48.778;2.308;2023-07-28T11:51:43;100133.02;;;22.84;47.08
62237;BME280;69163;48.778;2.308;2023-07-28T11:54:07;100131.26;;;22.65;47.19
62237;BME280;69163;48.778;2.308;2023-07-28T11:56:32;100131.90;;;22.93;47.04
62237;BME280;69163;48.778;2.308;2023-07-28T11:58:58;100125.38;;;23.24;46.84
62237;BME280;69163;48.778;2.308;2023-07-28T12:01:22;100126.19;;;23.24;46.81
62237;BME280;69163;48.778;2.308;2023-07-28T12:03:47;100138.95;;;23.55;46.81
62237;BME280;69163;48.778;2.308;2023-07-28T12:06:13;100135.94;;;23.58;46.70
62237;BME280;69163;48.778;2.308;2023-07-28T12:08:38;100125.59;;;23.35;46.72
62237;BME280;69163;48.778;2.308;2023-07-28T12:11:04;100122.20;;;23.33;46.78
62237;BME280;69163;48.778;2.308;2023-07-28T12:13:29;100122.86;;;23.54;46.88
62237;BME280;69163;48.778;2.308;2023-07-28T12:15:54;100127.17;;;23.50;47.34
62237;BME280;69163;48.778;2.308;2023-07-28T12:18:19;100127.84;;;23.36;46.82
62237;BME280;69163;48.778;2.308;2023-07-28T12:20:45;100120.84;;;23.80;46.86
62237;BME280;69163;48.778;2.308;2023-07-28T12:23:11;100124.70;;;23.61;46.81
62237;BME280;69163;48.778;2.308;2023-07-28T12:25:37;100123.47;;;22.64;46.98
62237;BME280;69163;48.778;2.308;2023-07-28T12:28:01;100126.92;;;22.43;46.86
62237;BME280;69163;48.778;2.308;2023-07-28T12:30:26;100129.97;;;22.19;46.94
62237;BME280;69163;48.778;2.308;2023-07-28T12:32:52;100135.57;;;22.16;46.79
62237;BME280;69163;48.778;2.308;2023-07-28T12:35:17;100132.36;;;22.30;46.32
62237;BME280;69163;48.778;2.308;2023-07-28T12:37:41;100137.22;;;22.34;46.22